createdAt,value
2023-05-14T00:00:28.958Z,101200.94
2023-05-14T00:02:56.181Z,101197.34
2023-05-14T00:05:23.086Z,101196.47
2023-05-14T00:07:49.681Z,101206.09
2023-05-14T00:10:17.815Z,101206.47
2023-05-14T00:12:44.386Z,101198.03
2023-05-14T00:15:12.566Z,101199.22
2023-05-14T00:17:39.033Z,101195.97
2023-05-14T00:20:07.429Z,101193.53
2023-05-14T00:22:34.469Z,101194.28
2023-05-14T00:25:01.095Z,101192.66
2023-05-14T00:27:27.467Z,101190.63
2023-05-14T00:29:54.172Z,101186.16
2023-05-14T00:32:20.708Z,101189.75
2023-05-14T00:34:47.236Z,101187.28
2023-05-14T00:37:13.632Z,101184.84
2023-05-14T00:39:40.221Z,101188.88
2023-05-14T00:42:06.889Z,101174.34
2023-05-14T00:44:33.868Z,101188.78
2023-05-14T00:47:00.677Z,101176.31
2023-05-14T00:49:28.575Z,101189.91
2023-05-14T00:51:56.083Z,101180.59
2023-05-14T00:54:22.697Z,101178.19
2023-05-14T00:56:49.414Z,101181.38
2023-05-14T00:59:16.012Z,101177.69
2023-05-14T01:01:42.636Z,101190.47
2023-05-14T01:04:11.423Z,101188.41
2023-05-14T01:06:52.135Z,101174.72
2023-05-14T01:09:30.489Z,101175.03
2023-05-14T01:11:56.827Z,101185.47
2023-05-14T01:14:49.682Z,101178.59
2023-05-14T01:17:19.904Z,101176.16
2023-05-14T01:19:50.872Z,101175.66
2023-05-14T01:22:18.197Z,101181.19
2023-05-14T01:24:44.533Z,101176.28
2023-05-14T01:27:50.868Z,101185.41
2023-05-14T01:30:17.189Z,101190.25
2023-05-14T01:32:48.009Z,101180.13
2023-05-14T01:35:18.100Z,101177.72
2023-05-14T01:37:45.947Z,101169.22
2023-05-14T01:40:13.331Z,101176.00
2023-05-14T01:42:41.254Z,101182.34
2023-05-14T01:45:08.564Z,101171.94
2023-05-14T01:47:35.078Z,101167.09
2023-05-14T01:50:03.812Z,101171.09
2023-05-14T01:52:30.156Z,101169.00
2023-05-14T01:54:58.592Z,101154.88
2023-05-14T01:57:25.124Z,101158.44
2023-05-14T01:59:51.857Z,101168.03
2023-05-14T02:02:18.249Z,101165.97
2023-05-14T02:04:44.629Z,101157.91
2023-05-14T02:07:11.013Z,101159.47
2023-05-14T02:09:37.704Z,101154.59
2023-05-14T02:12:04.313Z,101157.78
2023-05-14T02:14:30.957Z,101155.69
2023-05-14T02:16:57.366Z,101154.88
2023-05-14T02:19:24.307Z,101157.25
2023-05-14T02:21:52.016Z,101159.59
2023-05-14T02:24:18.340Z,101160.41
2023-05-14T02:26:45.726Z,101154.00
2023-05-14T02:29:13.249Z,101157.19
2023-05-14T02:31:40.721Z,101147.94
2023-05-14T02:34:07.205Z,101154.75
2023-05-14T02:36:33.666Z,101145.88
2023-05-14T02:39:01.273Z,101149.88
2023-05-14T02:41:27.922Z,101151.88
2023-05-14T02:43:54.751Z,101147.78
2023-05-14T02:46:21.256Z,101147.78
2023-05-14T02:48:47.741Z,101144.53
2023-05-14T02:51:14.374Z,101142.13
2023-05-14T02:53:40.801Z,101130.09
2023-05-14T02:56:08.249Z,101139.66
2023-05-14T02:58:34.630Z,101140.03
2023-05-14T03:01:01.024Z,101147.28
2023-05-14T03:03:29.941Z,101148.44
2023-05-14T03:05:57.490Z,101148.44
2023-05-14T03:08:23.927Z,101134.81
2023-05-14T03:10:52.009Z,101134.81
2023-05-14T03:13:20.596Z,101131.53
2023-05-14T03:15:47.405Z,101136.81
2023-05-14T03:18:15.038Z,101137.22
2023-05-14T03:20:42.110Z,101141.59
2023-05-14T03:23:08.482Z,101131.03
2023-05-14T03:25:34.956Z,101140.63
2023-05-14T03:28:01.333Z,101134.13
2023-05-14T03:30:28.021Z,101132.03
2023-05-14T03:32:54.629Z,101126.81
2023-05-14T03:35:21.025Z,101134.78
2023-05-14T03:37:47.436Z,101134.31
2023-05-14T03:40:13.912Z,101137.47
2023-05-14T03:42:40.529Z,101130.25
2023-05-14T03:45:07.833Z,101135.03
2023-05-14T03:47:34.279Z,101123.72
2023-05-14T03:50:00.891Z,101122.94
2023-05-14T03:52:27.499Z,101128.91
2023-05-14T03:54:53.926Z,101118.41
2023-05-14T03:57:21.143Z,101115.53
2023-05-14T03:59:47.796Z,101122.31
2023-05-14T04:02:14.217Z,101125.13
2023-05-14T04:04:40.994Z,101119.88
2023-05-14T04:07:08.727Z,101117.09
2023-05-14T04:09:35.351Z,101118.22
2023-05-14T04:12:01.840Z,101127.50
2023-05-14T04:14:28.223Z,101127.81
2023-05-14T04:16:54.828Z,101129.81
2023-05-14T04:19:21.708Z,101125.41
2023-05-14T04:21:48.102Z,101120.16
2023-05-14T04:24:14.451Z,101126.94
2023-05-14T04:26:41.206Z,101116.09
2023-05-14T04:29:07.611Z,101121.25
2023-05-14T04:31:34.238Z,101125.22
2023-05-14T04:34:00.832Z,101120.78
2023-05-14T04:36:27.799Z,101122.41
2023-05-14T04:38:54.270Z,101114.84
2023-05-14T04:41:21.632Z,101111.66
2023-05-14T04:43:50.935Z,101119.72
2023-05-14T04:46:19.181Z,101123.78
2023-05-14T04:48:45.692Z,101115.81
2023-05-14T04:51:12.429Z,101114.28
2023-05-14T04:53:41.994Z,101120.31
2023-05-14T04:56:08.429Z,101114.81
2023-05-14T04:58:35.336Z,101114.88
2023-05-14T05:01:04.981Z,101118.94
2023-05-14T05:03:34.543Z,101120.63
2023-05-14T05:06:01.635Z,101127.19
2023-05-14T05:08:28.389Z,101126.88
2023-05-14T05:10:56.242Z,101133.41
2023-05-14T05:13:22.617Z,101123.06
2023-05-14T05:15:52.507Z,101126.31
2023-05-14T05:18:19.296Z,101133.63
2023-05-14T05:20:45.647Z,101130.09
2023-05-14T05:23:13.155Z,101130.53
2023-05-14T05:25:41.110Z,101129.41
2023-05-14T05:28:08.449Z,101126.22
2023-05-14T05:30:36.542Z,101136.72
2023-05-14T05:33:05.076Z,101132.00
2023-05-14T05:35:31.656Z,101135.69
2023-05-14T05:38:00.483Z,101130.59
2023-05-14T05:40:28.083Z,101133.84
2023-05-14T05:42:57.470Z,101129.84
2023-05-14T05:45:26.950Z,101132.72
2023-05-14T05:47:56.366Z,101132.00
2023-05-14T05:50:23.098Z,101120.00
2023-05-14T05:52:50.870Z,101130.94
2023-05-14T05:55:17.254Z,101130.66
2023-05-14T05:57:43.579Z,101139.13
2023-05-14T06:00:13.552Z,101134.41
2023-05-14T06:02:41.632Z,101141.72
2023-05-14T06:05:09.580Z,101146.22
2023-05-14T06:07:36.950Z,101144.28
2023-05-14T06:10:04.953Z,101133.59
2023-05-14T06:12:31.948Z,101132.03
2023-05-14T06:14:58.470Z,101134.47
2023-05-14T06:17:25.686Z,101142.13
2023-05-14T06:19:52.844Z,101136.56
2023-05-14T06:22:19.824Z,101140.66
2023-05-14T06:24:47.603Z,101147.50
2023-05-14T06:27:14.027Z,101145.16
2023-05-14T06:29:40.365Z,101145.56
2023-05-14T06:32:07.360Z,101147.19
2023-05-14T06:34:34.410Z,101148.47
2023-05-14T06:37:02.733Z,101147.69
2023-05-14T06:39:29.282Z,101149.38
2023-05-14T06:41:55.933Z,101141.81
2023-05-14T06:44:22.682Z,101146.31
2023-05-14T06:46:49.062Z,101147.63
2023-05-14T06:49:15.534Z,101149.38
2023-05-14T06:51:42.173Z,101146.28
2023-05-14T06:54:08.646Z,101135.97
2023-05-14T06:56:35.028Z,101138.88
2023-05-14T06:59:01.580Z,101139.00
2023-05-14T07:01:28.055Z,101133.50
2023-05-14T07:03:54.469Z,101126.00
2023-05-14T07:06:21.140Z,101122.88
2023-05-14T07:08:47.553Z,101132.66
2023-05-14T07:11:14.789Z,101127.13
2023-05-14T07:13:41.749Z,101128.47
2023-05-14T07:16:11.496Z,101120.91
2023-05-14T07:18:37.938Z,101118.19
2023-05-14T07:21:07.281Z,101115.44
2023-05-14T07:23:36.291Z,101113.53
2023-05-14T07:26:03.118Z,101120.50
2023-05-14T07:28:29.454Z,101116.19
2023-05-14T07:30:56.184Z,101117.09
2023-05-14T07:33:23.035Z,101110.75
2023-05-14T07:35:49.455Z,101112.47
2023-05-14T07:38:16.392Z,101109.78
2023-05-14T07:40:43.404Z,101108.28
2023-05-14T07:43:10.576Z,101117.31
2023-05-14T07:45:38.936Z,101114.97
2023-05-14T07:48:05.866Z,101103.81
2023-05-14T07:50:32.861Z,101102.28
2023-05-14T07:52:59.394Z,101103.97
2023-05-14T07:55:26.118Z,101099.66
2023-05-14T07:57:52.479Z,101099.72
2023-05-14T08:00:19.210Z,101103.78
2023-05-14T08:02:45.859Z,101095.34
2023-05-14T08:05:12.539Z,101099.41
2023-05-14T08:07:39.107Z,101094.56
2023-05-14T08:10:07.886Z,101086.44
2023-05-14T08:12:35.401Z,101091.69
2023-05-14T08:15:02.445Z,101086.78
2023-05-14T08:17:29.056Z,101090.41
2023-05-14T08:19:55.518Z,101089.56
2023-05-14T08:22:22.444Z,101093.09
2023-05-14T08:24:48.886Z,101094.59
2023-05-14T08:27:16.574Z,101095.72
2023-05-14T08:29:42.982Z,101092.34
2023-05-14T08:32:22.205Z,101097.09
2023-05-14T08:34:50.882Z,101094.94
2023-05-14T08:37:17.260Z,101092.78
2023-05-14T08:39:44.215Z,101091.84
2023-05-14T08:42:12.908Z,101100.63
2023-05-14T08:44:49.113Z,101100.09
2023-05-14T08:47:18.387Z,101080.50
2023-05-14T08:49:47.603Z,101081.63
2023-05-14T08:52:16.012Z,101084.34
2023-05-14T08:54:42.610Z,101085.09
2023-05-14T08:57:11.432Z,101076.09
2023-05-14T08:59:37.971Z,101076.84
2023-05-14T09:02:07.820Z,101064.66
2023-05-14T09:04:34.841Z,101080.06
2023-05-14T09:07:02.118Z,101066.28
2023-05-14T09:09:29.153Z,101062.19
2023-05-14T09:11:55.584Z,101055.72
2023-05-14T09:14:23.398Z,101059.34
2023-05-14T09:16:51.203Z,101060.53
2023-05-14T09:19:21.246Z,101060.13
2023-05-14T09:21:49.213Z,101064.94
2023-05-14T09:24:22.803Z,101062.88
2023-05-14T09:26:54.193Z,101073.41
2023-05-14T09:29:21.097Z,101065.25
2023-05-14T09:31:50.427Z,101064.09
2023-05-14T09:34:34.749Z,101069.00
2023-05-14T09:37:06.164Z,101061.72
2023-05-14T09:39:33.959Z,101066.66
2023-05-14T09:42:00.428Z,101056.56
2023-05-14T09:44:27.344Z,101055.00
2023-05-14T09:46:54.442Z,101050.59
2023-05-14T09:49:21.735Z,101050.63
2023-05-14T09:51:51.133Z,101053.13
2023-05-14T09:54:17.650Z,101045.84
2023-05-14T09:56:45.572Z,101039.00
2023-05-14T09:59:13.157Z,101042.25
2023-05-14T10:01:43.011Z,101035.41
2023-05-14T10:04:10.699Z,101034.16
2023-05-14T10:06:38.911Z,101030.88
2023-05-14T10:09:16.864Z,101030.50
2023-05-14T10:11:44.951Z,101024.34
2023-05-14T10:14:20.490Z,101024.34
2023-05-14T10:16:49.750Z,101031.56
2023-05-14T10:19:17.881Z,101023.78
2023-05-14T10:21:49.015Z,101028.63
2023-05-14T10:24:17.236Z,101024.50
2023-05-14T10:26:44.930Z,101017.53
2023-05-14T10:29:12.826Z,101021.53
2023-05-14T10:31:54.098Z,101017.53
2023-05-14T10:34:44.535Z,101008.56
2023-05-14T10:37:13.750Z,101013.34
2023-05-14T10:39:40.791Z,101008.41
2023-05-14T10:42:08.599Z,101001.88
2023-05-14T10:44:35.776Z,101007.06
2023-05-14T10:47:03.293Z,101012.72
2023-05-14T10:49:43.067Z,101008.25
2023-05-14T10:52:12.520Z,101002.25
2023-05-14T10:54:39.266Z,100999.88
2023-05-14T10:57:11.226Z,100997.94
2023-05-14T10:59:41.841Z,100999.22
2023-05-14T11:02:20.557Z,100991.59
2023-05-14T11:04:55.878Z,100986.31
2023-05-14T11:07:27.386Z,100992.38
2023-05-14T11:09:59.363Z,100987.88
2023-05-14T11:12:27.350Z,100989.91
2023-05-14T11:14:56.533Z,100987.44
2023-05-14T11:17:23.394Z,100974.06
2023-05-14T11:19:52.517Z,100984.59
2023-05-14T11:22:19.103Z,100985.81
2023-05-14T11:24:45.532Z,100985.47
2023-05-14T11:27:12.349Z,100985.91
2023-05-14T11:29:38.974Z,100983.47
2023-05-14T11:32:06.441Z,100982.31
2023-05-14T11:34:34.610Z,100979.88
2023-05-14T11:37:08.298Z,100971.81
2023-05-14T11:39:37.693Z,100972.63
2023-05-14T11:42:13.969Z,100975.94
2023-05-14T11:44:44.580Z,100975.53
2023-05-14T11:47:11.849Z,100969.06
2023-05-14T11:49:38.497Z,100968.66
2023-05-14T11:52:06.967Z,100970.75
2023-05-14T11:54:33.869Z,100962.22
2023-05-14T11:57:02.481Z,100960.19
2023-05-14T11:59:31.702Z,100947.69
2023-05-14T12:02:03.735Z,100937.63
2023-05-14T12:04:31.960Z,100939.22
2023-05-14T12:07:00.443Z,100940.41
2023-05-14T12:09:26.781Z,100943.53
2023-05-14T12:11:53.366Z,100943.81
2023-05-14T12:14:22.115Z,100938.88
2023-05-14T12:16:49.789Z,100935.56
2023-05-14T12:19:18.387Z,100940.34
2023-05-14T12:21:47.466Z,100934.63
2023-05-14T12:24:16.683Z,100928.50
2023-05-14T12:26:48.731Z,100930.13
2023-05-14T12:29:16.493Z,100923.13
2023-05-14T12:31:50.116Z,100918.28
2023-05-14T12:34:17.265Z,100916.97
2023-05-14T12:36:44.031Z,100905.53
2023-05-14T12:39:12.182Z,100904.28
2023-05-14T12:41:38.753Z,100908.75
2023-05-14T12:44:05.691Z,100898.19
2023-05-14T12:46:34.270Z,100905.91
2023-05-14T12:49:00.876Z,100895.34
2023-05-14T12:51:27.251Z,100887.63
2023-05-14T12:53:54.417Z,100894.47
2023-05-14T12:56:21.479Z,100885.50
2023-05-14T12:58:47.978Z,100885.09
2023-05-14T13:01:14.351Z,100884.25
2023-05-14T13:03:41.297Z,100880.97
2023-05-14T13:06:08.008Z,100874.84
2023-05-14T13:08:35.496Z,100878.88
2023-05-14T13:11:02.059Z,100870.28
2023-05-14T13:13:28.536Z,100871.81
2023-05-14T13:15:57.884Z,100864.38
2023-05-14T13:18:25.886Z,100866.72
2023-05-14T13:20:52.631Z,100870.72
2023-05-14T13:23:19.004Z,100867.00
2023-05-14T13:25:46.132Z,100862.13
2023-05-14T13:28:13.655Z,100858.41
2023-05-14T13:30:40.046Z,100852.22
2023-05-14T13:33:06.732Z,100850.16
2023-05-14T13:35:34.489Z,100854.25
2023-05-14T13:38:00.938Z,100848.13
2023-05-14T13:40:27.524Z,100848.47
2023-05-14T13:42:53.898Z,100842.00
2023-05-14T13:45:20.370Z,100842.38
2023-05-14T13:47:47.707Z,100844.78
2023-05-14T13:50:15.104Z,100843.53
2023-05-14T13:52:41.524Z,100845.50
2023-05-14T13:55:08.309Z,100837.31
2023-05-14T13:57:34.682Z,100836.91
2023-05-14T14:00:01.311Z,100837.25
2023-05-14T14:02:27.776Z,100828.25
2023-05-14T14:04:54.114Z,100839.22
2023-05-14T14:07:22.045Z,100837.53
2023-05-14T14:09:48.436Z,100838.34
2023-05-14T14:12:15.319Z,100822.97
2023-05-14T14:14:41.861Z,100821.78
2023-05-14T14:17:09.136Z,100814.94
2023-05-14T14:19:35.570Z,100816.59
2023-05-14T14:22:02.191Z,100821.56
2023-05-14T14:24:28.537Z,100810.28
2023-05-14T14:26:55.003Z,100808.75
2023-05-14T14:29:23.713Z,100807.56
2023-05-14T14:31:50.241Z,100794.59
2023-05-14T14:34:16.558Z,100797.44
2023-05-14T14:36:42.924Z,100793.34
2023-05-14T14:39:09.477Z,100802.25
2023-05-14T14:41:35.865Z,100793.63
2023-05-14T14:44:02.798Z,100802.44
2023-05-14T14:46:29.387Z,100805.22
2023-05-14T14:48:55.860Z,100791.38
2023-05-14T14:51:22.445Z,100802.75
2023-05-14T14:53:48.992Z,100795.09
2023-05-14T14:56:15.531Z,100791.88
2023-05-14T14:58:41.931Z,100799.69
2023-05-14T15:01:08.513Z,100794.50
2023-05-14T15:03:36.140Z,100789.34
2023-05-14T15:06:02.609Z,100792.69
2023-05-14T15:08:29.010Z,100790.38
2023-05-14T15:10:59.323Z,100780.72
2023-05-14T15:13:27.084Z,100788.91
2023-05-14T15:15:53.471Z,100791.34
2023-05-14T15:18:19.990Z,100783.72
2023-05-14T15:20:46.427Z,100783.78
2023-05-14T15:23:12.937Z,100777.72
2023-05-14T15:25:39.362Z,100778.94
2023-05-14T15:28:07.736Z,100779.41
2023-05-14T15:30:34.252Z,100782.63
2023-05-14T15:33:00.842Z,100775.69
2023-05-14T15:35:28.531Z,100777.28
2023-05-14T15:37:57.110Z,100782.53
2023-05-14T15:40:23.766Z,100778.81
2023-05-14T15:42:50.475Z,100779.97
2023-05-14T15:45:17.100Z,100771.44
2023-05-14T15:47:45.022Z,100773.88
2023-05-14T15:50:12.001Z,100765.69
2023-05-14T15:52:39.297Z,100768.91
2023-05-14T15:55:06.112Z,100770.13
2023-05-14T15:57:32.586Z,100772.19
2023-05-14T15:59:59.023Z,100767.28
2023-05-14T16:02:25.771Z,100768.19
2023-05-14T16:04:52.346Z,100768.59
2023-05-14T16:07:19.033Z,100767.44
2023-05-14T16:09:45.677Z,100776.44
2023-05-14T16:12:12.386Z,100771.16
2023-05-14T16:14:41.771Z,100765.13
2023-05-14T16:17:08.619Z,100763.53
2023-05-14T16:19:35.275Z,100764.72
2023-05-14T16:22:01.870Z,100767.22
2023-05-14T16:24:28.255Z,100764.81
2023-05-14T16:26:54.750Z,100761.59
2023-05-14T16:29:21.396Z,100763.19
2023-05-14T16:31:48.004Z,100755.53
2023-05-14T16:34:14.641Z,100761.22
2023-05-14T16:36:41.154Z,100761.66
2023-05-14T16:39:08.636Z,100762.06
2023-05-14T16:41:36.112Z,100764.91
2023-05-14T16:44:02.711Z,100768.22
2023-05-14T16:46:29.628Z,100759.28
2023-05-14T16:48:56.268Z,100771.91
2023-05-14T16:51:24.230Z,100764.28
2023-05-14T16:53:51.903Z,100764.69
2023-05-14T16:56:19.055Z,100770.38
2023-05-14T16:58:45.392Z,100766.72
2023-05-14T17:01:11.969Z,100765.13
2023-05-14T17:03:38.392Z,100763.09
2023-05-14T17:06:05.011Z,100762.28
2023-05-14T17:08:33.730Z,100759.44
2023-05-14T17:11:00.248Z,100764.34
2023-05-14T17:13:26.557Z,100758.66
2023-05-14T17:15:52.944Z,100753.81
2023-05-14T17:18:19.657Z,100767.22
2023-05-14T17:20:47.877Z,100764.44
2023-05-14T17:23:14.575Z,100768.53
2023-05-14T17:25:42.551Z,100775.91
2023-05-14T17:28:08.943Z,100776.31
2023-05-14T17:30:35.542Z,100788.13
2023-05-14T17:33:02.172Z,100773.56
2023-05-14T17:35:28.704Z,100780.91
2023-05-14T17:37:55.462Z,100772.88
2023-05-14T17:40:22.118Z,100776.16
2023-05-14T17:42:48.676Z,100772.56
2023-05-14T17:45:15.647Z,100774.66
2023-05-14T17:47:42.272Z,100773.47
2023-05-14T17:50:10.345Z,100773.97
2023-05-14T17:52:37.680Z,100770.78
2023-05-14T17:55:08.769Z,100781.78
2023-05-14T17:57:35.088Z,100762.38
2023-05-14T18:00:01.908Z,100767.69
2023-05-14T18:02:28.316Z,100775.44
2023-05-14T18:04:56.186Z,100774.69
2023-05-14T18:07:22.702Z,100778.41
2023-05-14T18:09:49.089Z,100779.25
2023-05-14T18:12:15.447Z,100782.97
2023-05-14T18:14:44.802Z,100778.56
2023-05-14T18:17:13.245Z,100777.38
2023-05-14T18:19:41.159Z,100781.06
2023-05-14T18:22:07.575Z,100788.84
2023-05-14T18:24:34.241Z,100773.91
2023-05-14T18:27:01.156Z,100781.22
2023-05-14T18:29:27.521Z,100782.50
2023-05-14T18:31:53.903Z,100783.78
2023-05-14T18:34:20.513Z,100787.91
2023-05-14T18:36:47.054Z,100785.16
2023-05-14T18:39:13.701Z,100777.47
2023-05-14T18:41:40.494Z,100787.63
2023-05-14T18:44:06.866Z,100784.06
2023-05-14T18:46:33.552Z,100788.94
2023-05-14T18:49:02.473Z,100786.97
2023-05-14T18:51:31.829Z,100787.81
2023-05-14T18:53:59.086Z,100791.94
2023-05-14T18:56:26.442Z,100796.03
2023-05-14T18:58:56.810Z,100799.72
2023-05-14T19:01:25.779Z,100801.78
2023-05-14T19:03:53.468Z,100800.22
2023-05-14T19:06:20.160Z,100798.66
2023-05-14T19:08:47.077Z,100803.16
2023-05-14T19:11:14.697Z,100793.50
2023-05-14T19:13:41.345Z,100799.22
2023-05-14T19:16:07.818Z,100797.25
2023-05-14T19:18:36.743Z,100801.34
2023-05-14T19:21:03.415Z,100804.28
2023-05-14T19:23:31.091Z,100805.53
2023-05-14T19:25:57.785Z,100799.50
2023-05-14T19:28:24.340Z,100802.78
2023-05-14T19:30:51.195Z,100806.09
2023-05-14T19:33:17.911Z,100806.53
2023-05-14T19:35:44.335Z,100805.34
2023-05-14T19:38:15.219Z,100802.97
2023-05-14T19:40:44.403Z,100800.22
2023-05-14T19:43:11.860Z,100800.66
2023-05-14T19:45:39.253Z,100802.75
2023-05-14T19:48:06.435Z,100800.38
2023-05-14T19:50:33.340Z,100804.06
2023-05-14T19:53:00.251Z,100805.75
2023-05-14T19:55:27.052Z,100805.75
2023-05-14T19:57:53.643Z,100805.38
2023-05-14T20:00:21.107Z,100805.03
2023-05-14T20:02:47.741Z,100801.84
2023-05-14T20:05:15.355Z,100804.69
2023-05-14T20:07:42.716Z,100801.84
2023-05-14T20:10:10.787Z,100805.13
2023-05-14T20:12:37.157Z,100796.66
2023-05-14T20:15:04.178Z,100802.34
2023-05-14T20:17:34.564Z,100802.75
2023-05-14T20:20:01.377Z,100801.19
2023-05-14T20:22:27.760Z,100801.22
2023-05-14T20:24:54.214Z,100802.03
2023-05-14T20:27:21.310Z,100794.78
2023-05-14T20:29:51.103Z,100793.59
2023-05-14T20:32:18.064Z,100794.81
2023-05-14T20:34:44.672Z,100796.03
2023-05-14T20:37:11.250Z,100801.72
2023-05-14T20:39:37.671Z,100808.97
2023-05-14T20:42:04.417Z,100805.34
2023-05-14T20:44:31.092Z,100799.69
2023-05-14T20:46:57.870Z,100794.06
2023-05-14T20:49:25.109Z,100796.88
2023-05-14T20:51:52.064Z,100793.28
2023-05-14T20:54:18.371Z,100795.72
2023-05-14T20:56:44.925Z,100796.97
2023-05-14T20:59:11.340Z,100792.53
2023-05-14T21:01:37.733Z,100793.34
2023-05-14T21:04:04.774Z,100787.31
2023-05-14T21:06:32.336Z,100778.03
2023-05-14T21:08:58.660Z,100775.63
2023-05-14T21:11:26.609Z,100778.44
2023-05-14T21:13:53.097Z,100774.81
2023-05-14T21:16:20.340Z,100780.50
2023-05-14T21:18:47.091Z,100775.22
2023-05-14T21:21:13.501Z,100786.13
2023-05-14T21:23:41.263Z,100782.91
2023-05-14T21:26:07.797Z,100777.28
2023-05-14T21:28:35.288Z,100778.88
2023-05-14T21:31:01.715Z,100772.41
2023-05-14T21:33:28.205Z,100772.00
2023-05-14T21:35:54.839Z,100771.19
2023-05-14T21:38:21.228Z,100766.78
2023-05-14T21:40:47.612Z,100771.19
2023-05-14T21:43:14.414Z,100763.56
2023-05-14T21:45:40.846Z,100761.13
2023-05-14T21:48:07.642Z,100766.75
2023-05-14T21:50:34.121Z,100763.13
2023-05-14T21:53:00.674Z,100759.50
2023-05-14T21:55:27.953Z,100753.88
2023-05-14T21:57:54.922Z,100749.03
2023-05-14T22:00:24.632Z,100753.44
2023-05-14T22:02:52.913Z,100756.31
2023-05-14T22:05:22.204Z,100745.81
2023-05-14T22:07:50.452Z,100748.22
2023-05-14T22:10:16.881Z,100741.38
2023-05-14T22:12:44.463Z,100752.25
2023-05-14T22:15:11.817Z,100747.44
2023-05-14T22:17:38.757Z,100747.44
2023-05-14T22:20:06.736Z,100743.81
2023-05-14T22:22:34.108Z,100744.59
2023-05-14T22:25:01.656Z,100742.19
2023-05-14T22:27:28.465Z,100744.22
2023-05-14T22:29:58.100Z,100741.81
2023-05-14T22:32:24.960Z,100732.91
2023-05-14T22:34:52.241Z,100731.72
2023-05-14T22:37:18.748Z,100732.53
2023-05-14T22:39:45.078Z,100729.31
2023-05-14T22:42:11.893Z,100729.69
2023-05-14T22:44:38.633Z,100725.66
2023-05-14T22:47:05.196Z,100718.81
2023-05-14T22:49:32.061Z,100708.34
2023-05-14T22:51:58.557Z,100705.53
2023-05-14T22:54:24.933Z,100705.09
2023-05-14T22:56:51.840Z,100703.91
2023-05-14T22:59:18.245Z,100699.84
2023-05-14T23:01:44.706Z,100700.66
2023-05-14T23:04:11.123Z,100696.66
2023-05-14T23:06:38.081Z,100696.22
2023-05-14T23:09:04.538Z,100697.44
2023-05-14T23:11:32.337Z,100703.09
2023-05-14T23:13:58.800Z,100701.06
2023-05-14T23:16:25.932Z,100703.09
2023-05-14T23:18:52.792Z,100699.88
2023-05-14T23:21:19.336Z,100698.66
2023-05-14T23:23:46.602Z,100701.09
2023-05-14T23:26:13.187Z,100696.22
2023-05-14T23:28:39.842Z,100697.84
2023-05-14T23:31:06.221Z,100708.69
2023-05-14T23:33:32.894Z,100703.47
2023-05-14T23:35:59.600Z,100707.50
2023-05-14T23:38:26.068Z,100707.47
2023-05-14T23:40:52.440Z,100704.25
2023-05-14T23:43:19.389Z,100692.97
2023-05-14T23:45:45.808Z,100689.34
2023-05-14T23:48:12.424Z,100684.50
2023-05-14T23:50:38.952Z,100683.69
2023-05-14T23:53:05.446Z,100675.25
2023-05-14T23:55:31.853Z,100680.06
2023-05-14T23:57:58.417Z,100676.41
